Time;durP1;ratioP1;P1;durP2;ratioP2;P2;SDS_P1;SDS_P2;PMS_P1;PMS_P2;Temp;Humidity;BMP_temperature;BMP_pressure;BME280_temperature;BME280_humidity;BME280_pressure;Samples;Min_cycle;Max_cycle;Signal;HPM_P1;HPM_P2
2023/04/18 00:00:41;;;;;;;13.63;9.25;;;5.50;99.90;;;;;;5036498;28;20054;-66
2023/04/18 00:03:08;;;;;;;14.98;9.52;;;5.50;99.90;;;;;;5065769;28;20093;-67
2023/04/18 00:05:35;;;;;;;16.00;9.38;;;5.50;99.90;;;;;;5083883;28;20044;-67
2023/04/18 00:08:01;;;;;;;13.88;9.43;;;5.50;99.90;;;;;;5079654;28;20067;-66
2023/04/18 00:10:27;;;;;;;15.30;9.93;;;5.50;99.90;;;;;;5085045;28;20451;-66
2023/04/18 00:12:53;;;;;;;18.25;9.48;;;5.40;99.90;;;;;;5079464;28;20060;-66
2023/04/18 00:15:19;;;;;;;12.77;8.77;;;5.40;99.90;;;;;;5083111;28;20642;-66
2023/04/18 00:17:44;;;;;;;16.27;8.82;;;5.40;99.90;;;;;;5064174;28;20075;-66
2023/04/18 00:20:11;;;;;;;14.70;9.60;;;5.30;99.90;;;;;;5084487;28;20129;-66
2023/04/18 00:22:41;;;;;;;15.35;9.82;;;5.30;99.90;;;;;;5081989;28;20119;-66
2023/04/18 00:25:09;;;;;;;17.23;9.90;;;5.30;99.90;;;;;;5084760;28;20448;-66
2023/04/18 00:27:35;;;;;;;17.77;10.45;;;5.30;99.90;;;;;;5045631;28;20036;-66
2023/04/18 00:30:01;;;;;;;14.45;9.45;;;5.20;99.90;;;;;;5086035;28;20036;-66
2023/04/18 00:32:27;;;;;;;13.65;9.50;;;5.20;99.90;;;;;;5082942;28;20032;-66
2023/04/18 00:34:52;;;;;;;15.40;8.77;;;5.10;99.90;;;;;;5062928;28;20100;-66
2023/04/18 00:37:18;;;;;;;14.80;9.70;;;5.10;99.90;;;;;;5083090;28;20032;-66
2023/04/18 00:39:44;;;;;;;17.10;10.57;;;5.00;99.90;;;;;;5062478;28;20040;-66
2023/04/18 00:42:09;;;;;;;16.88;9.73;;;5.00;99.90;;;;;;5051599;28;20569;-66
2023/04/18 00:44:35;;;;;;;15.23;9.77;;;4.90;99.90;;;;;;5077893;28;20063;-66
2023/04/18 00:47:01;;;;;;;12.57;9.43;;;4.80;99.90;;;;;;5082187;28;20038;-66
2023/04/18 00:49:27;;;;;;;15.52;9.55;;;4.80;99.90;;;;;;5080840;28;20079;-66
2023/04/18 00:51:54;;;;;;;17.92;10.82;;;4.80;99.90;;;;;;5082390;28;20046;-66
2023/04/18 00:54:20;;;;;;;15.68;9.75;;;4.70;99.90;;;;;;5078521;28;20047;-66
2023/04/18 00:56:47;;;;;;;16.15;10.38;;;4.70;99.90;;;;;;5082130;28;20174;-66
2023/04/18 00:59:13;;;;;;;15.98;10.30;;;4.70;99.90;;;;;;5064833;28;20040;-66
2023/04/18 01:01:39;;;;;;;16.02;11.00;;;4.70;99.90;;;;;;5078281;28;20452;-66
2023/04/18 01:04:08;;;;;;;14.60;9.43;;;4.60;99.90;;;;;;5064965;28;20047;-66
2023/04/18 01:06:35;;;;;;;14.70;9.93;;;4.60;99.90;;;;;;5083633;28;20056;-66
2023/04/18 01:09:02;;;;;;;16.02;10.38;;;4.60;99.90;;;;;;5061386;28;20071;-66
2023/04/18 01:11:28;;;;;;;19.08;10.30;;;4.60;99.90;;;;;;5082798;28;20093;-66
2023/04/18 01:14:03;;;;;;;17.48;10.70;;;4.60;99.90;;;;;;5050883;28;20345;-66
2023/04/18 01:16:33;;;;;;;19.48;11.07;;;4.60;99.90;;;;;;5076203;28;20493;-66
2023/04/18 01:19:02;;;;;;;13.35;9.48;;;4.60;99.90;;;;;;5082752;28;20078;-66
2023/04/18 01:21:30;;;;;;;16.58;10.05;;;4.60;99.90;;;;;;5061110;28;20127;-66
2023/04/18 01:24:04;;;;;;;15.90;10.27;;;4.60;99.90;;;;;;5081349;28;20047;-66
2023/04/18 01:26:30;;;;;;;17.58;10.95;;;4.60;99.90;;;;;;5063318;28;20036;-65
2023/04/18 01:28:56;;;;;;;15.13;10.57;;;4.60;99.90;;;;;;5049045;28;20046;-66
2023/04/18 01:31:21;;;;;;;13.23;9.77;;;4.70;99.90;;;;;;5080834;28;20492;-66
2023/04/18 01:33:47;;;;;;;13.10;9.98;;;4.70;99.90;;;;;;5078367;28;20127;-65
2023/04/18 01:36:13;;;;;;;15.85;10.27;;;4.80;99.90;;;;;;5083719;28;20137;-65
2023/04/18 01:38:39;;;;;;;16.60;10.50;;;4.80;99.90;;;;;;5063960;28;20453;-65
2023/04/18 01:41:04;;;;;;;16.58;10.20;;;4.90;99.90;;;;;;5077487;28;20051;-66
2023/04/18 01:43:30;;;;;;;17.33;10.35;;;4.90;99.90;;;;;;5083151;28;20028;-66
2023/04/18 01:45:56;;;;;;;16.92;10.38;;;5.00;99.90;;;;;;5080570;28;20493;-66
2023/04/18 01:48:21;;;;;;;16.48;11.10;;;5.00;99.90;;;;;;5078413;28;20047;-66
2023/04/18 01:50:47;;;;;;;16.13;10.63;;;5.00;99.90;;;;;;5079224;28;20509;-66
2023/04/18 01:53:13;;;;;;;16.63;10.63;;;5.10;99.90;;;;;;5080142;28;20035;-66
2023/04/18 01:55:38;;;;;;;13.75;10.18;;;5.10;99.90;;;;;;5081000;28;20039;-66
2023/04/18 01:58:04;;;;;;;16.55;10.27;;;5.20;99.90;;;;;;5081151;28;20039;-66
2023/04/18 02:00:30;;;;;;;14.32;10.32;;;5.20;99.90;;;;;;5079297;28;20122;-66
2023/04/18 02:02:57;;;;;;;17.15;10.20;;;5.20;99.90;;;;;;5064370;28;20101;-66
2023/04/18 02:05:25;;;;;;;16.52;10.50;;;5.20;99.90;;;;;;5078080;28;20036;-66
2023/04/18 02:07:51;;;;;;;15.38;11.25;;;5.30;99.90;;;;;;5083047;28;20040;-66
2023/04/18 02:10:18;;;;;;;15.80;9.73;;;5.30;99.90;;;;;;5080005;28;20036;-66
2023/04/18 02:12:44;;;;;;;21.63;10.73;;;5.30;99.90;;;;;;5081040;28;20728;-66
2023/04/18 02:15:10;;;;;;;15.93;10.02;;;5.30;99.90;;;;;;5059116;28;20044;-66
2023/04/18 02:17:36;;;;;;;17.60;10.85;;;5.40;99.90;;;;;;5075725;28;20039;-66
2023/04/18 02:20:02;;;;;;;16.52;10.43;;;5.40;99.90;;;;;;5082849;28;20068;-66
2023/04/18 02:22:28;;;;;;;16.23;10.73;;;5.40;99.90;;;;;;5082975;28;20048;-66
2023/04/18 02:24:54;;;;;;;19.45;10.82;;;5.40;99.90;;;;;;5077809;28;20339;-66
2023/04/18 02:27:20;;;;;;;18.20;9.93;;;5.40;99.90;;;;;;5060578;28;20044;-66
2023/04/18 02:29:46;;;;;;;17.08;10.70;;;5.40;99.90;;;;;;5080530;28;20040;-66
2023/04/18 02:32:12;;;;;;;16.67;10.70;;;5.40;99.90;;;;;;5058513;28;20098;-66
2023/04/18 02:34:38;;;;;;;16.35;10.50;;;5.40;99.90;;;;;;5060827;28;20036;-66
2023/04/18 02:37:04;;;;;;;16.08;10.48;;;5.40;99.90;;;;;;5061425;28;20161;-66
2023/04/18 02:39:30;;;;;;;20.52;11.25;;;5.40;99.90;;;;;;5075991;28;20415;-66
2023/04/18 02:41:56;;;;;;;19.25;12.13;;;5.40;99.90;;;;;;5061146;28;20490;-66
2023/04/18 02:44:21;;;;;;;18.77;11.13;;;5.40;99.90;;;;;;5064809;28;20036;-66
2023/04/18 02:46:47;;;;;;;18.98;10.82;;;5.30;99.90;;;;;;5079559;28;20039;-66
2023/04/18 02:49:13;;;;;;;19.25;11.70;;;5.30;99.90;;;;;;5081515;28;20114;-66
2023/04/18 02:51:38;;;;;;;16.42;10.13;;;5.30;99.90;;;;;;5080277;28;20029;-66
2023/04/18 02:54:04;;;;;;;15.15;11.10;;;5.30;99.90;;;;;;5084293;28;20040;-66
2023/04/18 02:56:30;;;;;;;23.48;11.60;;;5.30;99.90;;;;;;5077313;28;20060;-66
2023/04/18 02:58:56;;;;;;;20.15;12.20;;;5.30;99.90;;;;;;5069028;28;20048;-66
2023/04/18 03:01:21;;;;;;;19.52;12.23;;;5.30;99.90;;;;;;5065964;28;20750;-66
2023/04/18 03:03:47;;;;;;;17.92;11.55;;;5.30;99.90;;;;;;5084555;28;20052;-66
2023/04/18 03:06:13;;;;;;;17.10;11.20;;;5.40;99.90;;;;;;5084040;28;20044;-66
2023/04/18 03:08:39;;;;;;;17.77;10.85;;;5.40;99.90;;;;;;5068389;28;20036;-66
2023/04/18 03:11:05;;;;;;;16.92;10.85;;;5.40;99.90;;;;;;5065246;28;20087;-66
2023/04/18 03:13:31;;;;;;;16.17;11.75;;;5.40;99.90;;;;;;5031437;28;20064;-66
2023/04/18 03:15:57;;;;;;;23.98;11.27;;;5.50;99.90;;;;;;5084530;28;20436;-66
2023/04/18 03:18:23;;;;;;;17.80;11.32;;;5.50;99.90;;;;;;5081630;28;20044;-67
2023/04/18 03:20:48;;;;;;;16.23;10.68;;;5.50;99.90;;;;;;5083056;28;20051;-65
2023/04/18 03:23:14;;;;;;;20.70;11.43;;;5.60;99.90;;;;;;5084258;28;20101;-66
2023/04/18 03:25:40;;;;;;;17.67;11.40;;;5.60;99.90;;;;;;5081821;28;20036;-66
2023/04/18 03:28:05;;;;;;;16.58;10.90;;;5.60;99.90;;;;;;5020913;28;20036;-66
2023/04/18 03:30:31;;;;;;;19.42;11.15;;;5.70;99.90;;;;;;5080892;28;20058;-66
2023/04/18 03:32:58;;;;;;;15.80;10.45;;;5.70;99.90;;;;;;5083919;28;20407;-66
2023/04/18 03:35:24;;;;;;;16.20;10.52;;;5.70;99.90;;;;;;5083949;28;20032;-66
2023/04/18 03:37:50;;;;;;;16.58;10.32;;;5.80;99.90;;;;;;5070448;28;20086;-66
2023/04/18 03:40:15;;;;;;;20.08;10.90;;;5.70;99.90;;;;;;5085913;28;20064;-66
2023/04/18 03:42:41;;;;;;;14.70;9.75;;;5.70;99.90;;;;;;5084420;28;20513;-66
2023/04/18 03:45:07;;;;;;;16.70;10.90;;;5.80;99.90;;;;;;5081821;28;20028;-66
2023/04/18 03:47:33;;;;;;;20.77;11.38;;;5.80;99.90;;;;;;5084867;28;20044;-66
2023/04/18 03:49:59;;;;;;;17.58;10.35;;;5.80;99.90;;;;;;5085513;28;20040;-66
2023/04/18 03:52:24;;;;;;;18.73;10.32;;;5.80;99.90;;;;;;5085034;28;20124;-66
2023/04/18 03:54:50;;;;;;;17.33;10.00;;;5.80;99.90;;;;;;5051035;28;20068;-66
2023/04/18 03:57:16;;;;;;;16.05;9.75;;;5.80;99.90;;;;;;5081572;28;20064;-66
2023/04/18 03:59:41;;;;;;;15.80;9.82;;;5.80;99.90;;;;;;5082889;28;20135;-66
2023/04/18 04:02:07;;;;;;;14.98;9.93;;;5.80;99.90;;;;;;5066110;28;20041;-66
2023/04/18 04:04:33;;;;;;;16.60;10.52;;;5.90;99.90;;;;;;5052007;28;20028;-66
2023/04/18 04:06:59;;;;;;;17.42;10.52;;;5.90;99.90;;;;;;5048662;28;20036;-66
2023/04/18 04:09:25;;;;;;;15.75;10.32;;;5.80;99.90;;;;;;5082337;28;20497;-66
2023/04/18 04:11:50;;;;;;;15.63;10.32;;;5.90;99.90;;;;;;5065037;28;20071;-66
2023/04/18 04:14:16;;;;;;;16.42;11.80;;;5.90;99.90;;;;;;5080460;28;20043;-66
2023/04/18 04:16:42;;;;;;;17.85;11.55;;;5.90;99.90;;;;;;5081022;28;20105;-66
2023/04/18 04:19:07;;;;;;;22.13;12.60;;;5.90;99.90;;;;;;5079620;28;20405;-66
2023/04/18 04:21:33;;;;;;;19.02;12.27;;;5.90;99.90;;;;;;5049421;28;20073;-66
2023/04/18 04:24:00;;;;;;;20.75;12.15;;;5.90;99.90;;;;;;5082320;28;20677;-66
2023/04/18 04:26:26;;;;;;;17.98;11.25;;;5.90;99.90;;;;;;5063539;28;20116;-66
2023/04/18 04:28:52;;;;;;;20.27;12.30;;;5.90;99.90;;;;;;5079982;28;20036;-66
2023/04/18 04:31:18;;;;;;;19.85;12.48;;;6.00;99.90;;;;;;5083140;28;20032;-66
2023/04/18 04:33:45;;;;;;;18.63;12.63;;;5.90;99.90;;;;;;5084381;28;20130;-66
2023/04/18 04:36:13;;;;;;;23.48;13.35;;;5.90;99.90;;;;;;5082676;28;20048;-66
2023/04/18 04:38:39;;;;;;;22.98;12.95;;;5.90;99.90;;;;;;5081296;28;20402;-66
2023/04/18 04:41:06;;;;;;;19.23;12.35;;;5.90;99.90;;;;;;5062980;28;20036;-66
2023/04/18 04:43:32;;;;;;;21.80;12.27;;;5.90;99.90;;;;;;5067220;28;20032;-65
2023/04/18 04:45:58;;;;;;;20.98;12.85;;;5.90;99.90;;;;;;5062281;28;20039;-66
2023/04/18 04:48:24;;;;;;;19.08;11.20;;;5.90;99.90;;;;;;5082278;28;20481;-66
2023/04/18 04:50:58;;;;;;;22.10;12.73;;;5.90;99.90;;;;;;5061947;28;20138;-66
2023/04/18 04:53:25;;;;;;;19.67;12.23;;;5.90;99.90;;;;;;5082741;28;20043;-66
2023/04/18 04:55:51;;;;;;;18.48;11.20;;;5.90;99.90;;;;;;5062305;28;20075;-66
2023/04/18 04:58:18;;;;;;;23.70;12.82;;;5.90;99.90;;;;;;5076931;28;20126;-66
2023/04/18 05:00:43;;;;;;;20.60;12.93;;;5.90;99.90;;;;;;5062387;28;20043;-66
2023/04/18 05:03:10;;;;;;;21.33;12.93;;;5.90;99.90;;;;;;5081344;28;20451;-66
2023/04/18 05:05:36;;;;;;;21.00;12.68;;;5.90;99.90;;;;;;5062620;28;20520;-65
2023/04/18 05:08:02;;;;;;;20.80;13.07;;;5.90;99.90;;;;;;5082614;28;20036;-66
2023/04/18 05:10:28;;;;;;;19.17;12.90;;;5.90;99.90;;;;;;5083947;28;20470;-66
2023/04/18 05:12:54;;;;;;;21.55;13.27;;;5.90;99.90;;;;;;5063507;28;20068;-66
2023/04/18 05:15:19;;;;;;;21.20;12.85;;;5.90;99.90;;;;;;5080983;28;20482;-66
2023/04/18 05:17:45;;;;;;;21.42;12.23;;;5.80;99.90;;;;;;5062684;28;20040;-66
2023/04/18 05:20:11;;;;;;;24.33;13.73;;;5.90;99.90;;;;;;5058884;28;20052;-66
2023/04/18 05:22:37;;;;;;;20.27;11.98;;;5.90;99.90;;;;;;5084436;28;20035;-66
2023/04/18 05:25:03;;;;;;;20.60;11.77;;;6.00;99.90;;;;;;5081624;28;20063;-66
2023/04/18 05:27:28;;;;;;;20.48;12.52;;;5.90;99.90;;;;;;5084745;28;20450;-66
2023/04/18 05:29:54;;;;;;;19.80;12.45;;;5.90;99.90;;;;;;5062870;28;20079;-66
2023/04/18 05:32:20;;;;;;;21.25;12.30;;;5.90;99.90;;;;;;5083993;28;20097;-66
2023/04/18 05:34:46;;;;;;;19.67;12.90;;;5.90;99.90;;;;;;5080139;28;20044;-66
2023/04/18 05:37:12;;;;;;;22.75;13.60;;;5.90;99.90;;;;;;5084801;28;20105;-66
2023/04/18 05:39:38;;;;;;;25.45;13.32;;;5.90;99.90;;;;;;5071049;28;20048;-66
2023/04/18 05:42:04;;;;;;;21.05;11.50;;;5.90;99.90;;;;;;5081702;28;20044;-66
2023/04/18 05:44:30;;;;;;;22.15;12.13;;;6.00;99.90;;;;;;5052338;28;20085;-66
2023/04/18 05:46:56;;;;;;;23.23;13.02;;;6.00;99.90;;;;;;5070682;28;20173;-66
2023/04/18 05:49:22;;;;;;;22.92;12.98;;;6.00;99.90;;;;;;5085762;28;20119;-66
2023/04/18 05:51:48;;;;;;;21.85;12.60;;;6.00;99.90;;;;;;5051870;28;20036;-65
2023/04/18 05:54:20;;;;;;;20.20;12.13;;;6.10;99.90;;;;;;5081553;28;20048;-66
2023/04/18 05:56:46;;;;;;;22.50;13.20;;;6.10;99.90;;;;;;5078783;28;20621;-66
2023/04/18 05:59:12;;;;;;;20.70;12.43;;;6.20;99.90;;;;;;5063474;28;20105;-66
2023/04/18 06:01:38;;;;;;;24.13;13.18;;;6.20;99.90;;;;;;5065768;28;20040;-66
2023/04/18 06:04:04;;;;;;;23.05;13.68;;;6.30;99.90;;;;;;5063029;28;20039;-66
2023/04/18 06:06:30;;;;;;;23.13;13.48;;;6.30;99.90;;;;;;5077636;28;20047;-66
2023/04/18 06:08:56;;;;;;;20.80;13.02;;;6.30;99.90;;;;;;5066362;28;20055;-65
2023/04/18 06:11:21;;;;;;;24.10;13.68;;;6.40;99.90;;;;;;5083930;28;20032;-65
2023/04/18 06:13:47;;;;;;;20.80;13.95;;;6.40;99.90;;;;;;5083403;28;20096;-66
2023/04/18 06:16:13;;;;;;;21.30;11.88;;;6.50;99.90;;;;;;5050171;28;20032;-66
2023/04/18 06:18:39;;;;;;;22.25;12.82;;;6.50;99.90;;;;;;5054773;28;20044;-66
2023/04/18 06:21:05;;;;;;;21.75;13.25;;;6.60;99.90;;;;;;5073350;28;20043;-66
2023/04/18 06:23:31;;;;;;;22.08;13.82;;;6.60;99.90;;;;;;5072510;28;20044;-65
2023/04/18 06:25:57;;;;;;;22.27;13.20;;;6.70;99.90;;;;;;5072982;28;20028;-66
2023/04/18 06:28:23;;;;;;;21.65;13.25;;;6.80;99.90;;;;;;5084020;28;20082;-66
2023/04/18 06:30:48;;;;;;;20.65;13.18;;;6.90;99.90;;;;;;5089093;28;20036;-65
2023/04/18 06:33:14;;;;;;;22.23;12.82;;;7.00;99.90;;;;;;5088047;28;20028;-66
2023/04/18 06:35:40;;;;;;;21.88;12.75;;;7.10;99.90;;;;;;5071005;28;20036;-66
2023/04/18 06:38:06;;;;;;;20.65;13.23;;;7.20;99.90;;;;;;5070532;28;20048;-66
2023/04/18 06:40:31;;;;;;;17.15;11.98;;;7.30;99.90;;;;;;5072138;28;20039;-66
2023/04/18 06:42:57;;;;;;;20.15;12.45;;;7.50;99.90;;;;;;5088829;28;20032;-66
2023/04/18 06:45:23;;;;;;;20.20;13.02;;;7.50;99.90;;;;;;5086340;28;20091;-66
2023/04/18 06:47:50;;;;;;;21.80;11.73;;;7.60;99.90;;;;;;5090243;28;20032;-66
2023/04/18 06:50:16;;;;;;;18.85;12.73;;;7.70;99.90;;;;;;5075586;28;20425;-66
2023/04/18 06:52:44;;;;;;;17.92;11.45;;;7.70;99.90;;;;;;5100481;28;20454;-66
2023/04/18 06:55:13;;;;;;;19.35;11.35;;;7.70;99.90;;;;;;5087145;28;20032;-65
2023/04/18 06:57:40;;;;;;;18.50;11.32;;;7.70;99.90;;;;;;5096146;28;20040;-66
2023/04/18 07:00:07;;;;;;;16.75;10.85;;;7.70;99.90;;;;;;5087591;28;20516;-66
2023/04/18 07:02:34;;;;;;;16.52;10.52;;;7.80;99.90;;;;;;5076361;28;20040;-66
2023/04/18 07:05:00;;;;;;;15.63;10.25;;;7.90;99.90;;;;;;5073396;28;20036;-66
2023/04/18 07:07:26;;;;;;;17.23;10.90;;;7.90;99.90;;;;;;5083195;28;20577;-66
2023/04/18 07:09:52;;;;;;;16.83;10.38;;;8.00;99.90;;;;;;5083025;28;20032;-66
2023/04/18 07:12:18;;;;;;;16.55;10.45;;;8.10;99.90;;;;;;5077702;28;20039;-66
2023/04/18 07:14:44;;;;;;;15.38;9.68;;;8.20;99.90;;;;;;5063558;28;20036;-66
2023/04/18 07:17:10;;;;;;;13.93;10.10;;;8.20;99.90;;;;;;5079529;28;20036;-66
2023/04/18 07:19:35;;;;;;;13.57;9.95;;;8.40;99.90;;;;;;5079692;28;20051;-66
2023/04/18 07:22:01;;;;;;;12.73;9.55;;;8.90;99.90;;;;;;5079393;28;20044;-66
2023/04/18 07:24:27;;;;;;;14.45;9.98;;;9.80;99.90;;;;;;5082538;28;20040;-66
2023/04/18 07:26:53;;;;;;;12.70;9.38;;;10.60;99.90;;;;;;5080396;28;20036;-66
2023/04/18 07:29:19;;;;;;;13.63;10.05;;;11.40;99.90;;;;;;5081838;28;20422;-66
2023/04/18 07:31:48;;;;;;;13.77;9.95;;;11.90;99.90;;;;;;5064358;28;20173;-66
2023/04/18 07:34:14;;;;;;;14.98;10.07;;;12.30;99.90;;;;;;5075633;28;20225;-66
2023/04/18 07:36:40;;;;;;;12.55;9.13;;;12.70;99.90;;;;;;5080876;28;20036;-66
2023/04/18 07:39:06;;;;;;;12.50;8.80;;;12.60;99.90;;;;;;5051364;28;20067;-66
2023/04/18 07:41:33;;;;;;;12.73;9.18;;;12.80;99.90;;;;;;5046715;28;20070;-66
2023/04/18 07:44:00;;;;;;;14.20;9.50;;;13.30;99.90;;;;;;5045344;28;20162;-66
2023/04/18 07:46:26;;;;;;;13.85;9.75;;;13.40;99.90;;;;;;5069774;28;20059;-66
2023/04/18 07:48:52;;;;;;;12.68;9.98;;;13.80;99.90;;;;;;5070260;28;20028;-66
2023/04/18 07:51:17;;;;;;;13.10;9.48;;;13.90;99.70;;;;;;5071214;28;20404;-66
2023/04/18 07:53:43;;;;;;;12.30;9.50;;;13.80;99.60;;;;;;5070249;28;20113;-66
2023/04/18 07:56:11;;;;;;;15.13;10.27;;;13.70;98.40;;;;;;5070216;28;20509;-66
2023/04/18 07:58:37;;;;;;;15.15;9.90;;;13.10;98.50;;;;;;5053547;28;20123;-66
2023/04/18 08:01:03;;;;;;;14.57;10.95;;;12.20;99.60;;;;;;5070617;28;20044;-66
2023/04/18 08:03:29;;;;;;;14.68;10.43;;;11.60;99.90;;;;;;5053144;28;20055;-66
2023/04/18 08:05:54;;;;;;;14.38;10.23;;;11.20;99.90;;;;;;5052826;28;20401;-66
2023/04/18 08:08:20;;;;;;;14.23;9.23;;;11.00;99.90;;;;;;5069648;28;20085;-66
2023/04/18 08:10:46;;;;;;;16.08;10.80;;;10.90;99.90;;;;;;5072952;28;20040;-66
2023/04/18 08:13:12;;;;;;;15.30;10.48;;;10.70;99.90;;;;;;5072581;28;20037;-66
2023/04/18 08:15:39;;;;;;;15.73;11.40;;;10.70;99.90;;;;;;5071028;28;20040;-66
2023/04/18 08:18:04;;;;;;;17.27;11.45;;;10.50;99.90;;;;;;5054616;28;20905;-66
2023/04/18 08:20:30;;;;;;;15.10;10.98;;;10.50;99.90;;;;;;5069241;28;20048;-66
2023/04/18 08:22:56;;;;;;;14.98;10.18;;;10.30;99.90;;;;;;5071080;28;20054;-66
2023/04/18 08:25:22;;;;;;;14.43;10.10;;;10.30;99.90;;;;;;5070123;28;20036;-66
2023/04/18 08:27:48;;;;;;;15.10;10.73;;;10.20;99.90;;;;;;5070599;28;20067;-66
2023/04/18 08:30:14;;;;;;;16.13;11.50;;;10.10;99.90;;;;;;5072831;28;20074;-68
2023/04/18 08:32:39;;;;;;;16.60;12.50;;;10.20;99.90;;;;;;5036547;28;20110;-70
2023/04/18 08:35:05;;;;;;;15.70;10.85;;;10.10;99.90;;;;;;5055169;28;21105;-68
2023/04/18 08:37:34;;;;;;;17.58;10.55;;;10.10;99.90;;;;;;5039416;28;20042;-68
2023/04/18 08:40:01;;;;;;;16.27;10.75;;;10.10;99.90;;;;;;5054757;28;20069;-67
2023/04/18 08:42:26;;;;;;;14.82;11.35;;;10.10;99.90;;;;;;5055523;28;20118;-68
2023/04/18 08:44:52;;;;;;;15.95;10.25;;;10.00;99.90;;;;;;5055819;28;20126;-67
2023/04/18 08:47:19;;;;;;;17.95;11.43;;;9.90;99.90;;;;;;5055618;28;20115;-68
2023/04/18 08:49:45;;;;;;;14.77;10.15;;;9.90;99.90;;;;;;5056197;28;20047;-68
2023/04/18 08:52:18;;;;;;;16.83;11.60;;;10.10;99.90;;;;;;5042523;28;20434;-68
2023/04/18 08:54:45;;;;;;;16.42;10.93;;;10.30;99.90;;;;;;5054077;28;20040;-67
2023/04/18 08:57:15;;;;;;;15.38;10.38;;;10.50;99.90;;;;;;5067810;28;20101;-67
2023/04/18 08:59:43;;;;;;;16.10;11.27;;;10.60;99.90;;;;;;5068890;28;20037;-68
2023/04/18 09:02:11;;;;;;;19.40;11.52;;;10.70;99.90;;;;;;5069956;28;20467;-67
2023/04/18 09:04:44;;;;;;;16.33;10.32;;;10.70;99.90;;;;;;5043162;28;20281;-68
2023/04/18 09:07:11;;;;;;;;;;;10.70;99.90;;;;;;5058285;28;20047;-68
2023/04/18 09:09:47;;;;;;;19.60;11.45;;;10.60;99.90;;;;;;5055062;28;20055;-69
2023/04/18 09:12:16;;;;;;;19.25;11.18;;;10.60;99.90;;;;;;5038418;28;20036;-68
2023/04/18 09:14:47;;;;;;;14.68;10.18;;;10.60;99.90;;;;;;5052755;28;20456;-69
2023/04/18 09:17:37;;;;;;;14.85;10.13;;;10.70;99.90;;;;;;5057236;28;20051;-68
2023/04/18 09:20:05;;;;;;;17.25;11.02;;;10.50;99.90;;;;;;5056542;28;20047;-68
2023/04/18 09:22:49;;;;;;;19.23;10.93;;;10.40;99.90;;;;;;5074882;28;20849;-68
2023/04/18 09:25:43;;;;;;;16.38;11.18;;;10.40;99.90;;;;;;5056336;28;20040;-68
2023/04/18 09:28:28;;;;;;;18.08;10.10;;;10.40;99.90;;;;;;5075556;28;20097;-68
2023/04/18 09:31:06;;;;;;;16.35;10.25;;;10.50;99.90;;;;;;5058825;28;20192;-68
2023/04/18 09:33:32;;;;;;;14.02;10.30;;;10.60;99.90;;;;;;5038570;28;20420;-68
2023/04/18 09:36:17;;;;;;;16.70;10.23;;;10.60;99.90;;;;;;5054145;28;20036;-68
2023/04/18 09:38:43;;;;;;;15.77;9.95;;;10.60;99.90;;;;;;5052725;28;20427;-68
2023/04/18 09:41:11;;;;;;;14.65;9.40;;;10.70;99.90;;;;;;5036097;28;20044;-68
2023/04/18 09:43:37;;;;;;;13.02;8.65;;;11.20;99.90;;;;;;5052990;28;20035;-68
2023/04/18 09:46:07;;;;;;;15.85;9.95;;;11.40;99.90;;;;;;5073682;28;20028;-68
2023/04/18 09:48:33;;;;;;;15.82;11.02;;;12.30;99.90;;;;;;5070827;28;20127;-69
2023/04/18 09:51:05;;;;;;;13.68;9.85;;;13.40;99.90;;;;;;5072626;28;20096;-68
2023/04/18 09:53:32;;;;;;;16.85;11.20;;;14.30;99.90;;;;;;5071372;28;20414;-69
2023/04/18 09:55:58;;;;;;;17.98;11.73;;;15.00;99.90;;;;;;5071498;28;20096;-68
2023/04/18 09:58:27;;;;;;;16.90;12.10;;;15.60;99.90;;;;;;5074385;28;20455;-68
2023/04/18 10:00:53;;;;;;;14.07;10.70;;;16.20;99.40;;;;;;5057118;28;20102;-71
2023/04/18 10:03:20;;;;;;;15.68;10.75;;;16.40;99.40;;;;;;5053301;28;20800;-68
2023/04/18 10:05:47;;;;;;;16.10;11.85;;;16.60;98.30;;;;;;5072279;28;20111;-69
2023/04/18 10:08:13;;;;;;;13.82;10.32;;;16.40;97.70;;;;;;5041605;28;20120;-68
2023/04/18 10:10:40;;;;;;;14.95;11.43;;;16.70;98.70;;;;;;5054259;28;20460;-68
2023/04/18 10:13:10;;;;;;;13.77;9.90;;;17.00;97.70;;;;;;5052824;28;20036;-68
2023/04/18 10:15:36;;;;;;;13.73;10.40;;;16.90;96.90;;;;;;5068507;28;20047;-68
2023/04/18 10:18:08;;;;;;;12.88;10.07;;;16.20;96.50;;;;;;5034870;28;20119;-68
2023/04/18 10:20:34;;;;;;;14.23;10.02;;;16.20;96.40;;;;;;5053031;28;20052;-67
2023/04/18 10:23:35;;;;;;;16.88;10.30;;;15.90;96.90;;;;;;5062346;28;20106;-68
2023/04/18 10:26:02;;;;;;;12.55;10.05;;;16.00;96.80;;;;;;5027702;28;20040;-67
2023/04/18 10:28:51;;;;;;;14.07;9.50;;;15.60;96.30;;;;;;5057797;28;20749;-67
2023/04/18 10:31:17;;;;;;;13.35;10.27;;;16.10;97.30;;;;;;5038338;28;20039;-67
2023/04/18 10:33:56;;;;;;;13.20;10.40;;;15.60;96.50;;;;;;5053676;28;20055;-68
2023/04/18 10:36:22;;;;;;;14.48;9.40;;;15.10;96.70;;;;;;5053774;28;20083;-67
2023/04/18 10:39:18;;;;;;;14.60;9.38;;;15.20;98.10;;;;;;5071125;28;20135;-67
2023/04/18 10:41:50;;;;;;;12.43;9.48;;;14.90;96.90;;;;;;5070367;28;20040;-67
2023/04/18 10:44:21;;;;;;;16.10;9.63;;;14.80;98.00;;;;;;5037086;28;20459;-67
2023/04/18 10:46:47;;;;;;;12.45;9.20;;;15.10;97.90;;;;;;5070068;28;20036;-67
2023/04/18 10:49:16;;;;;;;13.40;10.50;;;15.60;97.50;;;;;;5053016;28;20043;-67
2023/04/18 10:51:45;;;;;;;12.23;9.20;;;15.60;97.70;;;;;;5069379;28;20578;-67
2023/04/18 10:54:38;;;;;;;13.93;9.18;;;15.40;96.30;;;;;;5070596;28;20044;-67
2023/04/18 10:57:07;;;;;;;13.55;8.88;;;14.90;97.30;;;;;;5055897;28;20504;-67
2023/04/18 10:59:36;;;;;;;12.57;8.93;;;14.70;97.50;;;;;;5034519;28;20093;-67
2023/04/18 11:02:24;;;;;;;12.85;9.80;;;14.60;97.50;;;;;;5067851;28;20068;-66
2023/04/18 11:04:52;;;;;;;13.93;10.40;;;15.10;97.70;;;;;;5054923;28;20106;-66
2023/04/18 11:07:18;;;;;;;12.07;9.82;;;15.70;97.20;;;;;;5071382;28;20580;-66
2023/04/18 11:09:53;;;;;;;12.80;9.82;;;15.90;96.90;;;;;;5070691;28;20166;-66
2023/04/18 11:12:19;;;;;;;12.00;9.38;;;15.70;96.70;;;;;;5065951;28;20550;-67
2023/04/18 11:14:48;;;;;;;12.00;9.73;;;16.10;97.70;;;;;;5074608;28;20040;-66
2023/04/18 11:17:19;;;;;;;12.85;10.23;;;16.10;97.10;;;;;;5057901;28;20550;-67
2023/04/18 11:19:45;;;;;;;14.88;9.75;;;16.50;97.00;;;;;;5061270;28;20131;-67
2023/04/18 11:22:12;;;;;;;13.55;9.70;;;16.50;96.30;;;;;;5043256;28;20048;-67
2023/04/18 11:24:38;;;;;;;12.90;9.10;;;16.30;95.90;;;;;;5060710;28;20048;-67
2023/04/18 11:27:04;;;;;;;13.90;9.35;;;15.80;95.70;;;;;;5078669;28;20502;-67
2023/04/18 11:29:29;;;;;;;11.23;8.70;;;15.50;95.90;;;;;;5043411;28;20528;-67
2023/04/18 11:31:55;;;;;;;14.77;9.13;;;15.40;96.50;;;;;;5061375;28;20159;-67
2023/04/18 11:34:21;;;;;;;12.77;10.02;;;15.50;96.00;;;;;;5060538;28;20399;-67
2023/04/18 11:36:51;;;;;;;13.43;9.98;;;15.60;96.30;;;;;;5061175;28;20035;-67
2023/04/18 11:39:17;;;;;;;12.57;8.80;;;15.80;96.70;;;;;;5078135;28;20489;-67
2023/04/18 11:41:49;;;;;;;12.60;9.73;;;15.90;96.10;;;;;;5061052;28;20040;-67
2023/04/18 11:44:16;;;;;;;14.27;9.97;;;16.20;96.30;;;;;;5078604;28;20100;-67
2023/04/18 11:46:43;;;;;;;12.98;10.40;;;16.50;96.50;;;;;;5057394;28;20044;-67
2023/04/18 11:49:32;;;;;;;12.65;10.10;;;16.80;96.20;;;;;;5055779;28;20041;-67
2023/04/18 11:51:58;;;;;;;12.30;10.18;;;16.60;95.40;;;;;;5057410;28;20564;-67
2023/04/18 11:54:41;;;;;;;14.60;9.82;;;16.50;95.30;;;;;;5058823;28;20028;-67
2023/04/18 11:57:20;;;;;;;13.20;10.30;;;16.70;95.00;;;;;;5075171;28;20055;-67
2023/04/18 11:59:55;;;;;;;12.10;9.25;;;16.80;94.60;;;;;;5075468;28;20097;-67
2023/04/18 12:02:23;;;;;;;11.65;9.55;;;16.90;94.90;;;;;;5070654;28;20240;-66
2023/04/18 12:04:54;;;;;;;15.57;9.98;;;16.80;95.10;;;;;;5073275;28;20043;-67
2023/04/18 12:07:46;;;;;;;12.68;10.70;;;16.50;94.70;;;;;;5072358;28;20125;-66
2023/04/18 12:10:18;;;;;;;15.35;11.02;;;16.60;94.60;;;;;;5073825;28;20044;-67
2023/04/18 12:12:51;;;;;;;12.68;10.02;;;16.60;94.60;;;;;;5055480;28;20064;-66
2023/04/18 12:15:17;;;;;;;;;;;16.80;95.70;;;;;;5073033;28;20085;-66
2023/04/18 12:17:44;;;;;;;12.85;10.50;;;16.60;93.50;;;;;;5053679;28;19961;-67
2023/04/18 12:20:12;;;;;;;13.10;10.82;;;16.70;94.40;;;;;;5074099;28;20044;-67
2023/04/18 12:22:43;;;;;;;14.38;11.43;;;16.90;94.90;;;;;;5056086;28;20525;-66
2023/04/18 12:25:25;;;;;;;14.82;9.85;;;16.80;94.80;;;;;;5037182;28;20043;-67
2023/04/18 12:27:52;;;;;;;13.07;9.40;;;17.00;94.60;;;;;;5053874;28;20051;-67
2023/04/18 12:30:20;;;;;;;11.68;9.73;;;17.20;94.10;;;;;;5055322;28;20076;-67
2023/04/18 12:32:49;;;;;;;11.15;9.18;;;17.00;94.00;;;;;;5038104;28;20075;-67
2023/04/18 12:35:17;;;;;;;15.63;9.80;;;17.00;93.60;;;;;;5072765;28;20560;-67
2023/04/18 12:37:44;;;;;;;12.80;8.85;;;17.10;93.80;;;;;;5055888;28;20425;-67